createdAt,value
2019-05-06T00:02:04.526Z,3.20
2019-05-06T00:04:34.187Z,2.70
2019-05-06T00:07:04.327Z,3.10
2019-05-06T00:09:34.878Z,2.62
2019-05-06T00:12:04.372Z,2.62
2019-05-06T00:14:33.979Z,2.73
2019-05-06T00:17:03.959Z,2.47
2019-05-06T00:19:34.110Z,2.80
2019-05-06T00:22:04.753Z,3.00
2019-05-06T00:24:45.310Z,2.33
2019-05-06T00:27:21.876Z,2.80
2019-05-06T00:29:50.874Z,2.70
2019-05-06T00:32:19.765Z,2.47
2019-05-06T00:34:48.656Z,2.40
2019-05-06T00:37:17.648Z,3.17
2019-05-06T00:39:48.178Z,2.25
2019-05-06T00:42:18.707Z,2.70
2019-05-06T00:44:47.700Z,2.45
2019-05-06T00:47:16.585Z,2.65
2019-05-06T00:49:45.481Z,2.55
2019-05-06T00:52:14.373Z,2.20
2019-05-06T00:54:43.641Z,2.40
2019-05-06T00:57:13.993Z,2.83
2019-05-06T00:59:44.133Z,2.60
2019-05-06T01:02:14.120Z,2.65
2019-05-06T01:04:44.580Z,2.55
2019-05-06T01:07:14.057Z,2.85
2019-05-06T01:09:43.934Z,2.70
2019-05-06T01:12:14.327Z,2.80
2019-05-06T01:14:48.007Z,2.95
2019-05-06T01:17:17.102Z,2.80
2019-05-06T01:19:47.325Z,2.45
2019-05-06T01:22:16.215Z,2.40
2019-05-06T01:24:45.207Z,2.77
2019-05-06T01:27:14.527Z,2.35
2019-05-06T01:29:44.194Z,2.67
2019-05-06T01:32:13.985Z,2.30
2019-05-06T01:34:44.651Z,2.27
2019-05-06T01:37:14.366Z,2.60
2019-05-06T01:39:48.589Z,2.85
2019-05-06T01:42:19.116Z,2.22
2019-05-06T01:44:47.994Z,2.40
2019-05-06T01:47:17.001Z,2.40
2019-05-06T01:49:45.890Z,2.83
2019-05-06T01:52:14.794Z,2.42
2019-05-06T01:54:43.773Z,2.22
2019-05-06T01:57:13.747Z,2.55
2019-05-06T01:59:44.310Z,3.12
2019-05-06T02:02:14.292Z,2.30
2019-05-06T02:04:44.421Z,2.40
2019-05-06T02:07:14.504Z,2.58
2019-05-06T02:09:44.774Z,2.47
2019-05-06T02:12:14.507Z,2.47
2019-05-06T02:14:43.762Z,2.62
2019-05-06T02:17:14.560Z,2.85
2019-05-06T02:19:43.999Z,2.70
2019-05-06T02:22:20.309Z,2.65
2019-05-06T02:24:53.709Z,3.20
2019-05-06T02:27:24.755Z,2.50
2019-05-06T02:29:57.733Z,2.47
2019-05-06T02:32:35.982Z,2.70
2019-05-06T02:35:07.717Z,2.52
2019-05-06T02:37:46.401Z,2.72
2019-05-06T02:40:29.191Z,2.58
2019-05-06T02:42:58.131Z,3.22
2019-05-06T02:45:27.023Z,3.02
2019-05-06T02:48:04.533Z,2.40
2019-05-06T02:50:45.194Z,3.00
2019-05-06T02:53:15.709Z,3.00
2019-05-06T02:55:44.611Z,3.10
2019-05-06T02:58:14.812Z,3.50
2019-05-06T03:00:45.201Z,3.30
2019-05-06T03:03:16.648Z,2.95
2019-05-06T03:05:52.784Z,3.72
2019-05-06T03:08:20.116Z,3.10
2019-05-06T03:10:49.009Z,3.02
2019-05-06T03:13:18.818Z,2.60
2019-05-06T03:15:47.814Z,3.50
2019-05-06T03:18:16.702Z,3.20
2019-05-06T03:20:57.266Z,3.20
2019-05-06T03:23:35.104Z,3.12
2019-05-06T03:26:06.684Z,3.52
2019-05-06T03:28:35.918Z,3.25
2019-05-06T03:31:06.710Z,3.45
2019-05-06T03:33:55.026Z,3.60
2019-05-06T03:36:15.175Z,3.80
2019-05-06T03:38:36.497Z,3.17
2019-05-06T03:41:05.392Z,3.50
2019-05-06T03:43:34.229Z,3.67
2019-05-06T03:46:13.999Z,3.95
2019-05-06T03:48:53.051Z,3.60
2019-05-06T03:51:23.299Z,3.60
2019-05-06T03:53:56.755Z,3.52
2019-05-06T03:56:26.565Z,3.20
2019-05-06T03:58:58.107Z,3.60
2019-05-06T04:01:28.645Z,3.92
2019-05-06T04:03:57.641Z,4.12
2019-05-06T04:06:28.601Z,4.12
2019-05-06T04:08:58.431Z,4.12
2019-05-06T04:11:28.878Z,3.90
2019-05-06T04:14:02.531Z,4.10
2019-05-06T04:16:34.198Z,4.80
2019-05-06T04:19:12.838Z,4.45
2019-05-06T04:21:43.757Z,4.72
2019-05-06T04:24:18.894Z,5.00
2019-05-06T04:26:49.416Z,4.95
2019-05-06T04:29:19.048Z,5.30
2019-05-06T04:31:49.895Z,4.95
2019-05-06T04:34:19.811Z,5.40
2019-05-06T04:36:49.392Z,5.00
2019-05-06T04:39:18.391Z,4.75
2019-05-06T04:41:48.297Z,5.25
2019-05-06T04:44:17.191Z,4.67
2019-05-06T04:46:46.079Z,4.35
2019-05-06T04:49:15.353Z,4.72
2019-05-06T04:51:44.883Z,4.50
2019-05-06T04:54:13.791Z,4.95
2019-05-06T04:56:44.369Z,5.30
2019-05-06T04:59:14.229Z,4.42
2019-05-06T05:01:45.708Z,4.30
2019-05-06T05:04:24.516Z,4.62
2019-05-06T05:06:46.405Z,4.40
2019-05-06T05:09:17.413Z,4.00
2019-05-06T05:11:53.252Z,4.50
2019-05-06T05:14:25.788Z,4.60
2019-05-06T05:17:08.700Z,3.90
2019-05-06T05:19:39.238Z,3.95
2019-05-06T05:22:08.232Z,4.42
2019-05-06T05:24:38.557Z,4.17
2019-05-06T05:27:08.949Z,4.70
2019-05-06T05:29:37.876Z,4.83
2019-05-06T05:32:06.867Z,4.60
2019-05-06T05:34:39.874Z,4.40
2019-05-06T05:37:06.263Z,4.28
2019-05-06T05:39:36.609Z,5.15
2019-05-06T05:42:16.766Z,4.47
2019-05-06T05:44:47.296Z,5.05
2019-05-06T05:47:16.186Z,4.10
2019-05-06T05:50:03.166Z,4.37
2019-05-06T05:52:33.935Z,3.60
2019-05-06T05:55:04.893Z,4.55
2019-05-06T05:57:34.587Z,3.75
2019-05-06T06:00:05.727Z,4.75
2019-05-06T06:02:35.545Z,4.80
2019-05-06T06:05:07.176Z,4.40
2019-05-06T06:07:36.088Z,4.25
2019-05-06T06:10:15.013Z,4.50
2019-05-06T06:12:45.421Z,4.25
2019-05-06T06:15:25.788Z,5.25
2019-05-06T06:18:13.840Z,5.13
2019-05-06T06:20:52.811Z,4.40
2019-05-06T06:23:23.908Z,4.55
2019-05-06T06:25:53.871Z,3.90
2019-05-06T06:28:24.017Z,5.00
2019-05-06T06:31:02.880Z,4.20
2019-05-06T06:33:33.040Z,4.80
2019-05-06T06:36:08.946Z,4.47
2019-05-06T06:38:47.980Z,3.93
2019-05-06T06:41:16.867Z,4.80
2019-05-06T06:43:47.293Z,4.70
2019-05-06T06:46:16.489Z,4.67
2019-05-06T06:48:45.482Z,4.10
2019-05-06T06:51:14.374Z,4.40
2019-05-06T06:53:43.469Z,3.30
2019-05-06T06:56:21.874Z,4.03
2019-05-06T06:58:52.684Z,4.37
2019-05-06T07:01:25.840Z,3.97
2019-05-06T07:03:57.771Z,3.77
2019-05-06T07:06:28.932Z,3.87
2019-05-06T07:08:57.908Z,3.63
2019-05-06T07:11:26.772Z,3.60
2019-05-06T07:13:56.406Z,3.20
2019-05-06T07:16:25.289Z,3.80
2019-05-06T07:18:54.188Z,3.20
2019-05-06T07:21:27.008Z,3.67
2019-05-06T07:23:55.969Z,4.07
2019-05-06T07:26:26.493Z,3.73
2019-05-06T07:28:55.583Z,3.63
2019-05-06T07:31:26.708Z,4.40
2019-05-06T07:33:55.007Z,4.23
2019-05-06T07:36:23.901Z,3.67
2019-05-06T07:38:53.077Z,4.17
2019-05-06T07:41:43.437Z,4.40
2019-05-06T07:44:13.033Z,4.20
2019-05-06T07:46:44.039Z,4.10
2019-05-06T07:49:13.134Z,5.00
2019-05-06T07:51:42.081Z,5.00
2019-05-06T07:54:12.288Z,5.17
2019-05-06T07:56:42.833Z,5.70
2019-05-06T07:59:12.847Z,5.27
2019-05-06T08:01:44.702Z,6.23
2019-05-06T08:04:13.646Z,5.30
2019-05-06T08:06:42.854Z,5.83
2019-05-06T08:09:13.146Z,6.30
2019-05-06T08:11:42.774Z,6.50
2019-05-06T08:14:12.965Z,5.20
2019-05-06T08:16:44.445Z,5.30
2019-05-06T08:19:13.955Z,5.77
2019-05-06T08:21:44.403Z,5.60
2019-05-06T08:24:13.270Z,5.87
2019-05-06T08:26:42.828Z,6.17
2019-05-06T08:29:15.490Z,4.87
2019-05-06T08:31:43.158Z,4.57
2019-05-06T08:34:12.580Z,5.23
2019-05-06T08:36:43.042Z,4.70
2019-05-06T08:39:13.476Z,5.00
2019-05-06T08:41:42.422Z,4.30
2019-05-06T08:44:12.762Z,4.30
2019-05-06T08:46:43.075Z,3.53
2019-05-06T08:49:12.374Z,3.70
2019-05-06T08:51:43.561Z,3.10
2019-05-06T08:54:14.008Z,3.33
2019-05-06T08:56:42.981Z,4.23
2019-05-06T08:59:13.893Z,3.97
2019-05-06T09:01:44.042Z,3.10
2019-05-06T09:04:16.128Z,3.63
2019-05-06T09:06:44.148Z,2.93
2019-05-06T09:09:13.188Z,5.17
2019-05-06T09:11:43.599Z,3.30
2019-05-06T09:14:13.772Z,3.20
2019-05-06T09:16:43.832Z,3.53
2019-05-06T09:19:14.293Z,2.80
2019-05-06T09:21:46.064Z,3.10
2019-05-06T09:24:13.667Z,3.10
2019-05-06T09:26:46.873Z,3.33
2019-05-06T09:29:25.988Z,2.77
2019-05-06T09:31:56.426Z,3.10
2019-05-06T09:34:32.816Z,2.70
2019-05-06T09:37:15.306Z,2.63
2019-05-06T09:39:45.368Z,2.60
2019-05-06T09:42:15.420Z,2.50
2019-05-06T09:44:50.044Z,2.60
2019-05-06T09:47:22.931Z,2.70
2019-05-06T09:49:53.067Z,2.33
2019-05-06T09:52:23.196Z,2.40
2019-05-06T09:54:54.435Z,2.10
2019-05-06T09:57:34.491Z,2.50
2019-05-06T10:00:05.714Z,2.63
2019-05-06T10:02:36.065Z,2.30
2019-05-06T10:05:07.305Z,2.60
2019-05-06T10:07:36.300Z,2.20
2019-05-06T10:10:06.741Z,2.20
2019-05-06T10:12:35.593Z,2.20
2019-05-06T10:15:06.146Z,2.07
2019-05-06T10:17:35.038Z,2.27
2019-05-06T10:20:05.363Z,1.90
2019-05-06T10:22:34.250Z,1.97
2019-05-06T10:25:04.623Z,2.53
2019-05-06T10:27:35.196Z,2.30
2019-05-06T10:30:12.516Z,2.10
2019-05-06T10:32:49.433Z,1.70
2019-05-06T10:35:18.367Z,2.27
2019-05-06T10:38:19.315Z,2.97
2019-05-06T10:41:00.731Z,2.10
2019-05-06T10:43:30.028Z,2.27
2019-05-06T10:46:01.112Z,2.10
2019-05-06T10:48:29.517Z,2.90
2019-05-06T10:51:03.549Z,2.90
2019-05-06T10:53:33.137Z,2.60
2019-05-06T10:56:03.680Z,1.83
2019-05-06T10:58:32.817Z,2.90
2019-05-06T11:01:12.306Z,3.00
2019-05-06T11:03:42.003Z,2.30
2019-05-06T11:06:12.985Z,2.43
2019-05-06T11:08:42.051Z,2.03
2019-05-06T11:11:16.946Z,2.50
2019-05-06T11:13:42.284Z,2.70
2019-05-06T11:16:12.929Z,2.80
2019-05-06T11:18:42.786Z,2.20
2019-05-06T11:21:12.787Z,2.80
2019-05-06T11:23:42.454Z,2.30
2019-05-06T11:26:13.111Z,2.63
2019-05-06T11:28:43.392Z,2.43
2019-05-06T11:34:05.440Z,2.80
2019-05-06T11:36:44.694Z,2.50
2019-05-06T11:39:14.191Z,3.00
2019-05-06T11:42:01.053Z,2.63
2019-05-06T11:44:13.824Z,2.80
2019-05-06T11:46:43.739Z,2.77
2019-05-06T11:49:12.683Z,2.67
2019-05-06T11:51:43.473Z,3.07
2019-05-06T11:54:19.446Z,3.03
2019-05-06T11:56:50.738Z,3.47
2019-05-06T11:59:14.828Z,2.87
2019-05-06T12:01:48.352Z,3.50
2019-05-06T12:04:17.240Z,3.23
2019-05-06T12:06:46.129Z,3.20
2019-05-06T12:09:16.959Z,3.73
2019-05-06T12:11:45.550Z,3.43
2019-05-06T12:14:14.543Z,2.97
2019-05-06T12:16:43.434Z,2.90
2019-05-06T12:19:13.100Z,3.27
2019-05-06T12:21:43.197Z,3.03
2019-05-06T12:24:12.872Z,2.83
2019-05-06T12:26:42.868Z,2.83
2019-05-06T12:29:12.808Z,3.47
2019-05-06T12:31:42.322Z,3.30
2019-05-06T12:34:14.507Z,3.10
2019-05-06T12:36:42.875Z,2.80
2019-05-06T12:39:18.956Z,2.63
2019-05-06T12:41:54.871Z,2.97
2019-05-06T12:44:23.970Z,2.77
2019-05-06T12:46:54.494Z,2.30
2019-05-06T12:49:23.386Z,2.93
2019-05-06T12:51:53.802Z,2.40
2019-05-06T12:54:22.762Z,2.77
2019-05-06T12:56:53.956Z,2.37
2019-05-06T12:59:22.941Z,2.33
2019-05-06T13:01:53.987Z,2.37
2019-05-06T13:04:43.743Z,2.63
2019-05-06T13:06:52.995Z,2.10
2019-05-06T13:09:22.519Z,2.10
2019-05-06T13:11:52.456Z,2.20
2019-05-06T13:14:22.579Z,2.50
2019-05-06T13:16:53.233Z,2.57
2019-05-06T13:19:22.875Z,2.67
2019-05-06T13:21:52.486Z,3.20
2019-05-06T13:24:22.806Z,2.20
2019-05-06T13:26:52.758Z,2.13
2019-05-06T13:29:25.097Z,2.03
2019-05-06T13:31:53.984Z,2.57
2019-05-06T13:34:23.464Z,2.67
2019-05-06T13:36:53.548Z,2.30
2019-05-06T13:39:24.038Z,2.60
2019-05-06T13:41:53.006Z,2.30
2019-05-06T13:44:22.977Z,1.90
2019-05-06T13:46:54.096Z,2.33
2019-05-06T13:49:24.719Z,2.40
2019-05-06T13:51:55.267Z,1.80
2019-05-06T13:54:24.282Z,1.97
2019-05-06T13:56:53.132Z,1.90
2019-05-06T13:59:22.024Z,3.50
2019-05-06T14:01:55.219Z,3.47
2019-05-06T14:04:24.247Z,2.27
2019-05-06T14:06:53.180Z,2.53
2019-05-06T14:09:29.535Z,2.10
2019-05-06T14:11:52.634Z,2.43
2019-05-06T14:14:22.702Z,2.17
2019-05-06T14:16:53.299Z,2.33
2019-05-06T14:19:22.613Z,2.20
2019-05-06T14:21:52.417Z,2.00
2019-05-06T14:24:22.303Z,2.30
2019-05-06T14:26:57.727Z,2.37
2019-05-06T14:29:32.966Z,2.23
2019-05-06T14:32:03.910Z,2.20
2019-05-06T14:34:32.811Z,2.50
2019-05-06T14:37:01.702Z,2.57
2019-05-06T14:39:48.432Z,2.40
2019-05-06T14:42:04.353Z,3.20
2019-05-06T14:44:33.391Z,2.40
2019-05-06T14:47:06.789Z,2.93
2019-05-06T14:49:35.678Z,2.57
2019-05-06T14:52:04.778Z,2.80
2019-05-06T14:54:35.306Z,3.60
2019-05-06T14:57:12.218Z,2.20
2019-05-06T14:59:42.283Z,2.50
2019-05-06T15:02:13.350Z,2.80
2019-05-06T15:04:43.455Z,3.00
2019-05-06T15:07:13.376Z,2.70
2019-05-06T15:09:55.707Z,3.20
2019-05-06T15:12:13.318Z,2.70
2019-05-06T15:14:43.020Z,3.20
2019-05-06T15:17:14.203Z,2.80
2019-05-06T15:19:42.852Z,3.47
2019-05-06T15:22:13.088Z,3.20
2019-05-06T15:24:42.822Z,2.80
2019-05-06T15:27:12.095Z,4.33
2019-05-06T15:29:43.233Z,3.87
2019-05-06T15:32:16.416Z,3.57
2019-05-06T15:35:04.933Z,2.80
2019-05-06T15:37:35.395Z,3.57
2019-05-06T15:40:06.903Z,3.53
2019-05-06T15:42:35.839Z,3.93
2019-05-06T15:45:07.708Z,3.70
2019-05-06T15:47:36.589Z,3.33
2019-05-06T15:50:07.227Z,3.23
2019-05-06T15:52:36.216Z,3.60
2019-05-06T15:55:07.674Z,3.30
2019-05-06T15:57:36.610Z,3.07
2019-05-06T16:00:12.897Z,3.70
2019-05-06T16:02:42.012Z,2.90
2019-05-06T16:05:18.840Z,3.50
2019-05-06T16:07:43.414Z,3.83
2019-05-06T16:10:14.223Z,3.37
2019-05-06T16:12:48.134Z,3.13
2019-05-06T16:15:17.736Z,3.33
2019-05-06T16:17:46.729Z,3.13
2019-05-06T16:20:15.832Z,3.07
2019-05-06T16:22:46.353Z,3.03
2019-05-06T16:25:16.883Z,3.20
2019-05-06T16:27:51.076Z,3.13
2019-05-06T16:30:24.130Z,3.53
2019-05-06T16:32:52.549Z,3.37
2019-05-06T16:35:22.432Z,3.83
2019-05-06T16:37:51.372Z,3.30
2019-05-06T16:40:22.915Z,3.73
2019-05-06T16:42:54.336Z,4.00
2019-05-06T16:45:23.380Z,3.87
2019-05-06T16:47:53.080Z,3.77
2019-05-06T16:50:23.914Z,3.63
2019-05-06T16:52:52.913Z,3.87
2019-05-06T16:55:32.959Z,3.43
2019-05-06T16:58:03.491Z,3.93
2019-05-06T17:00:35.204Z,3.43
2019-05-06T17:03:09.354Z,3.60
2019-05-06T17:05:56.378Z,4.30
2019-05-06T17:08:25.268Z,3.60
2019-05-06T17:10:54.159Z,4.03
2019-05-06T17:13:23.152Z,3.60
2019-05-06T17:15:52.921Z,3.77
2019-05-06T17:18:22.729Z,3.87
2019-05-06T17:20:51.821Z,4.20
2019-05-06T17:23:22.415Z,3.77
2019-05-06T17:25:52.086Z,4.33
2019-05-06T17:28:38.762Z,3.27
2019-05-06T17:31:27.489Z,4.33
2019-05-06T17:34:03.764Z,4.00
2019-05-06T17:36:34.200Z,4.20
2019-05-06T17:39:04.616Z,6.17
2019-05-06T17:41:44.371Z,4.27
2019-05-06T17:44:04.195Z,4.30
2019-05-06T17:46:43.740Z,4.03
2019-05-06T17:49:14.249Z,4.10
2019-05-06T17:52:02.808Z,3.60
2019-05-06T17:54:32.418Z,3.93
2019-05-06T17:57:04.251Z,4.23
2019-05-06T17:59:33.257Z,3.33
2019-05-06T18:02:04.336Z,4.43
2019-05-06T18:04:34.375Z,4.03
2019-05-06T18:07:03.570Z,3.50
2019-05-06T18:09:33.128Z,3.93
2019-05-06T18:12:03.103Z,4.57
2019-05-06T18:14:33.157Z,3.40
2019-05-06T18:17:03.652Z,4.40
2019-05-06T18:19:33.611Z,4.70
2019-05-06T18:22:02.726Z,4.20
2019-05-06T18:24:33.216Z,4.03
2019-05-06T18:27:02.772Z,4.47
2019-05-06T18:29:33.394Z,4.00
2019-05-06T18:32:03.702Z,4.30
2019-05-06T18:34:33.195Z,3.93
2019-05-06T18:37:03.138Z,4.00
2019-05-06T18:39:33.739Z,4.37
2019-05-06T18:42:15.717Z,3.70
2019-05-06T18:44:33.644Z,4.60
2019-05-06T18:47:02.863Z,4.50
2019-05-06T18:49:33.670Z,4.23
2019-05-06T18:52:02.592Z,4.60
2019-05-06T18:54:33.872Z,4.10
2019-05-06T18:57:04.794Z,3.97
2019-05-06T18:59:33.602Z,4.70
2019-05-06T19:02:03.244Z,4.47
2019-05-06T19:04:33.817Z,4.40
2019-05-06T19:07:12.350Z,4.27
2019-05-06T19:09:34.874Z,4.40
2019-05-06T19:12:03.736Z,4.43
2019-05-06T19:14:32.979Z,4.67
2019-05-06T19:17:02.738Z,4.50
2019-05-06T19:19:34.183Z,4.60
2019-05-06T19:22:02.915Z,4.47
2019-05-06T19:24:33.494Z,4.37
2019-05-06T19:27:02.124Z,4.60
2019-05-06T19:29:32.773Z,4.13
2019-05-06T19:32:02.817Z,4.27
2019-05-06T19:34:34.522Z,4.60
2019-05-06T19:37:02.447Z,4.30
2019-05-06T19:39:32.560Z,4.90
2019-05-06T19:42:02.939Z,4.70
2019-05-06T19:44:31.354Z,4.40
2019-05-06T19:46:59.801Z,5.67
2019-05-06T19:49:28.244Z,5.20
2019-05-06T19:51:56.731Z,5.07
2019-05-06T19:54:25.166Z,4.60
2019-05-06T19:56:53.611Z,4.63
2019-05-06T19:59:22.078Z,4.70
2019-05-06T20:01:52.452Z,4.23
2019-05-06T20:04:22.645Z,4.70
2019-05-06T20:06:58.444Z,4.80
2019-05-06T20:09:34.651Z,4.77
2019-05-06T20:12:12.302Z,4.83
2019-05-06T20:14:41.846Z,4.37
2019-05-06T20:17:10.435Z,4.53
2019-05-06T20:19:39.185Z,4.70
2019-05-06T20:22:07.626Z,4.70
2019-05-06T20:24:36.090Z,4.83
2019-05-06T20:27:04.655Z,4.60
2019-05-06T20:29:36.782Z,4.93
2019-05-06T20:32:03.231Z,4.90
2019-05-06T20:34:32.091Z,5.27
2019-05-06T20:37:02.037Z,4.40
2019-05-06T20:39:32.231Z,5.87
2019-05-06T20:42:02.758Z,4.53
2019-05-06T20:44:32.512Z,5.30
2019-05-06T20:47:03.014Z,5.80
2019-05-06T20:49:33.150Z,5.00
2019-05-06T20:52:01.297Z,5.40
2019-05-06T20:54:29.810Z,5.50
2019-05-06T20:56:58.297Z,5.17
2019-05-06T20:59:27.047Z,5.93
2019-05-06T21:01:55.505Z,5.50
2019-05-06T21:04:23.972Z,5.40
2019-05-06T21:06:52.477Z,5.50
2019-05-06T21:09:23.144Z,5.90
2019-05-06T21:11:52.896Z,5.57
2019-05-06T21:14:22.734Z,5.80
2019-05-06T21:16:51.275Z,4.90
2019-05-06T21:19:21.962Z,6.13
2019-05-06T21:21:49.869Z,5.97
2019-05-06T21:24:18.301Z,6.20
2019-05-06T21:26:46.746Z,5.20
2019-05-06T21:29:15.243Z,5.77
2019-05-06T21:31:43.693Z,4.80
2019-05-06T21:34:12.862Z,5.43
2019-05-06T21:36:42.304Z,6.17
2019-05-06T21:39:12.942Z,5.27
2019-05-06T21:41:42.754Z,5.60
2019-05-06T21:44:13.120Z,5.33
2019-05-06T21:46:42.915Z,5.77
2019-05-06T21:49:12.146Z,6.53
2019-05-06T21:51:42.497Z,5.80
2019-05-06T21:54:12.646Z,6.60
2019-05-06T21:56:42.470Z,5.47
2019-05-06T21:59:12.933Z,5.40
2019-05-06T22:01:43.023Z,5.07
2019-05-06T22:04:12.869Z,5.63
2019-05-06T22:06:42.829Z,5.07
2019-05-06T22:09:12.659Z,5.80
2019-05-06T22:11:42.303Z,6.07
2019-05-06T22:14:12.268Z,5.50
2019-05-06T22:16:43.538Z,6.40
2019-05-06T22:19:12.088Z,4.90
2019-05-06T22:21:49.152Z,5.83
2019-05-06T22:24:19.218Z,4.53
2019-05-06T22:26:47.672Z,5.77
2019-05-06T22:29:16.123Z,5.23
2019-05-06T22:31:44.608Z,5.50
2019-05-06T22:34:13.427Z,5.90
2019-05-06T22:36:43.159Z,4.97
2019-05-06T22:39:12.126Z,5.90
2019-05-06T22:41:41.217Z,5.83
2019-05-06T22:44:13.529Z,5.23
2019-05-06T22:46:39.800Z,5.53
2019-05-06T22:49:08.251Z,5.67
2019-05-06T22:51:36.714Z,5.60
2019-05-06T22:54:05.178Z,5.27
2019-05-06T22:56:33.799Z,5.80
2019-05-06T22:59:03.200Z,6.10
2019-05-06T23:01:36.718Z,5.33
2019-05-06T23:04:07.572Z,5.93
2019-05-06T23:06:36.020Z,5.87
2019-05-06T23:09:05.980Z,5.83
2019-05-06T23:11:34.430Z,5.67
2019-05-06T23:14:02.966Z,5.70
2019-05-06T23:16:32.906Z,6.27
2019-05-06T23:19:02.580Z,5.40
2019-05-06T23:21:33.752Z,5.50
2019-05-06T23:24:02.650Z,5.90
2019-05-06T23:26:31.649Z,5.60
2019-05-06T23:29:02.264Z,5.77
2019-05-06T23:31:30.200Z,5.33
2019-05-06T23:33:58.731Z,5.43
2019-05-06T23:36:28.852Z,5.47
2019-05-06T23:39:16.071Z,6.53
2019-05-06T23:42:02.716Z,5.37
2019-05-06T23:44:49.593Z,5.53
2019-05-06T23:47:37.652Z,5.77
2019-05-06T23:50:24.351Z,5.77
2019-05-06T23:53:12.307Z,5.57
2019-05-06T23:55:58.830Z,5.93
2019-05-06T23:58:26.684Z,5.73
